createdAt,value
2018-09-23T05:07:07.413Z,0.00
2018-09-23T05:09:24.419Z,0.00
2018-09-23T05:10:08.083Z,0.00
2018-09-23T05:11:08.633Z,0.00
2018-09-23T05:12:10.739Z,0.00
2018-09-23T05:13:10.184Z,0.00
2018-09-23T05:14:08.870Z,0.00
2018-09-23T05:15:11.682Z,5.63
2018-09-23T05:17:32.561Z,5.63
2018-09-23T05:18:10.887Z,5.63
2018-09-23T05:19:10.910Z,5.63
2018-09-23T05:20:12.978Z,5.63
2018-09-23T05:21:10.413Z,5.63
2018-09-23T05:22:11.834Z,5.63
2018-09-23T05:23:10.243Z,5.63
2018-09-23T05:24:10.776Z,5.63
2018-09-23T05:25:08.839Z,5.63
2018-09-23T05:26:08.483Z,5.63
2018-09-23T05:27:08.504Z,5.63
2018-09-23T05:28:08.794Z,5.63
2018-09-23T05:29:08.880Z,5.63
2018-09-23T05:30:08.812Z,5.63
2018-09-23T05:31:09.091Z,5.63
2018-09-23T05:32:09.278Z,5.63
2018-09-23T05:33:09.479Z,5.63
2018-09-23T05:34:09.593Z,5.63
2018-09-23T05:35:10.327Z,11.25
2018-09-23T05:36:10.279Z,11.25
2018-09-23T05:37:10.087Z,11.25
2018-09-23T05:38:10.286Z,11.25
2018-09-23T05:39:10.880Z,11.25
2018-09-23T05:40:11.046Z,11.25
2018-09-23T05:41:10.844Z,11.25
2018-09-23T05:42:10.971Z,11.25
2018-09-23T05:43:11.117Z,11.25
2018-09-23T05:44:11.159Z,11.25
2018-09-23T05:45:12.222Z,11.25
2018-09-23T05:46:11.394Z,11.25
2018-09-23T05:47:11.565Z,16.88
2018-09-23T05:49:11.913Z,22.50
2018-09-23T05:50:12.031Z,22.50
2018-09-23T05:51:12.788Z,22.50
2018-09-23T05:52:12.559Z,22.50
2018-09-23T05:53:12.680Z,22.50
2018-09-23T05:54:12.699Z,22.50
2018-09-23T05:55:12.762Z,22.50
2018-09-23T05:56:13.015Z,22.50
2018-09-23T05:57:13.108Z,28.13
2018-09-23T05:58:13.285Z,28.13
2018-09-23T05:59:13.411Z,28.13
2018-09-23T06:00:14.417Z,22.50
2018-09-23T06:01:15.252Z,22.50
2018-09-23T06:02:15.180Z,22.50
2018-09-23T06:06:46.151Z,33.75
2018-09-23T06:07:37.044Z,33.75
2018-09-23T06:08:37.328Z,28.13
2018-09-23T06:09:38.015Z,28.13
2018-09-23T06:10:40.240Z,28.13
2018-09-23T06:11:38.941Z,28.13
2018-09-23T06:12:49.056Z,28.13
2018-09-23T06:13:40.172Z,33.75
2018-09-23T06:14:39.755Z,45.00
2018-09-23T06:18:02.530Z,67.50
2018-09-23T06:19:03.707Z,73.13
2018-09-23T06:20:12.899Z,73.13
2018-09-23T06:21:10.596Z,73.13
2018-09-23T06:24:06.806Z,73.13
2018-09-23T06:25:06.285Z,67.50
2018-09-23T06:27:50.160Z,78.75
2018-09-23T06:33:00.032Z,61.88
2018-09-23T06:34:01.137Z,56.25
2018-09-23T06:35:06.685Z,56.25
2018-09-23T06:36:02.094Z,61.88
2018-09-23T06:37:02.917Z,61.88
2018-09-23T06:37:59.180Z,61.88
2018-09-23T06:38:59.078Z,61.88
2018-09-23T06:39:59.166Z,67.50
2018-09-23T06:40:59.427Z,78.75
2018-09-23T06:41:59.426Z,84.38
2018-09-23T06:42:59.676Z,84.38
2018-09-23T06:43:59.885Z,84.38
2018-09-23T06:45:00.025Z,84.38
2018-09-23T06:46:00.173Z,78.75
2018-09-23T06:47:00.858Z,78.75
2018-09-23T06:48:02.984Z,78.75
2018-09-23T06:49:00.964Z,78.75
2018-09-23T06:50:03.206Z,73.13
2018-09-23T06:51:01.607Z,78.75
2018-09-23T08:05:15.819Z,208.13
2018-09-23T08:21:27.657Z,196.88
2018-09-23T08:22:30.029Z,196.88
2018-09-23T08:23:28.175Z,196.88
2018-09-23T08:24:26.478Z,191.25
2018-09-23T08:25:26.827Z,185.63
2018-09-23T08:26:26.740Z,174.38
2018-09-23T08:27:26.849Z,163.13
2018-09-23T08:28:26.934Z,168.75
2018-09-23T08:29:27.158Z,157.50
2018-09-23T08:30:27.349Z,151.88
2018-09-23T08:31:27.562Z,163.13
2018-09-23T08:32:27.659Z,174.38
2018-09-23T08:33:27.856Z,168.75
2018-09-23T08:34:27.930Z,163.13
2018-09-23T08:35:28.067Z,168.75
2018-09-23T08:36:28.598Z,168.75
2018-09-23T08:37:28.491Z,163.13
2018-09-23T08:38:28.789Z,151.88
2018-09-23T08:39:28.905Z,146.25
2018-09-23T08:40:29.027Z,151.88
2018-09-23T08:41:29.120Z,157.50
2018-09-23T08:42:29.215Z,163.13
2018-09-23T08:43:29.457Z,180.00
2018-09-23T08:44:29.675Z,191.25
2018-09-23T08:45:29.773Z,191.25
2018-09-23T08:46:31.171Z,196.88
2018-09-23T08:47:30.115Z,202.50
2018-09-23T08:48:30.318Z,208.13
2018-09-23T08:49:30.439Z,208.13
2018-09-23T08:50:30.802Z,208.13
2018-09-23T08:51:30.735Z,213.75
2018-09-23T08:52:30.941Z,219.38
2018-09-23T08:53:31.125Z,225.00
2018-09-23T08:54:31.272Z,225.00
2018-09-23T08:55:31.356Z,213.75
2018-09-23T08:56:31.641Z,213.75
2018-09-23T08:57:31.779Z,202.50
2018-09-23T08:58:31.967Z,191.25
2018-09-23T08:59:32.235Z,174.38
2018-09-23T09:00:32.715Z,174.38
2018-09-23T09:01:32.507Z,168.75
2018-09-23T09:02:32.689Z,168.75
2018-09-23T09:03:32.886Z,185.63
2018-09-23T09:04:33.049Z,202.50
2018-09-23T09:05:33.278Z,208.13
2018-09-23T09:06:33.412Z,225.00
2018-09-23T09:07:33.597Z,236.25
2018-09-23T09:08:33.731Z,236.25
2018-09-23T09:09:34.260Z,225.00
2018-09-23T09:10:34.009Z,213.75
2018-09-23T09:11:34.327Z,213.75
2018-09-23T09:12:34.496Z,213.75
2018-09-23T09:13:39.538Z,219.38
2018-09-23T09:14:34.740Z,230.63
2018-09-23T09:15:34.914Z,236.25
2018-09-23T09:16:35.112Z,241.88
2018-09-23T09:17:35.318Z,247.50
2018-09-23T09:18:46.736Z,236.25
2018-09-23T09:19:39.497Z,236.25
2018-09-23T09:20:38.982Z,247.50
2018-09-23T09:21:40.740Z,270.00
2018-09-23T09:28:31.196Z,309.38
2018-09-23T09:29:34.485Z,303.75
2018-09-23T09:30:31.690Z,292.50
2018-09-23T09:31:31.749Z,258.75
2018-09-23T09:32:30.090Z,247.50
2018-09-23T09:33:29.583Z,264.38
2018-09-23T09:34:29.839Z,258.75
2018-09-23T09:35:30.139Z,236.25
2018-09-23T09:36:30.043Z,213.75
2018-09-23T09:37:30.465Z,208.13
2018-09-23T09:38:30.489Z,213.75
2018-09-23T09:39:32.749Z,219.38
2018-09-23T09:40:30.998Z,219.38
2018-09-23T09:41:32.376Z,208.13
2018-09-23T09:42:40.044Z,208.13
2018-09-23T09:57:44.173Z,270.00
2018-09-23T09:58:44.840Z,275.63
2018-09-23T09:59:43.040Z,281.25
2018-09-23T10:08:23.776Z,309.38
2018-09-23T10:09:25.974Z,292.50
2018-09-23T10:24:54.253Z,219.38
2018-09-23T10:35:46.820Z,303.75
2018-09-23T10:36:47.121Z,343.13
2018-09-23T10:37:48.727Z,354.38
2018-09-23T10:38:47.279Z,354.38
2018-09-23T10:39:48.732Z,348.75
2018-09-23T10:40:47.562Z,365.63
2018-09-23T10:41:47.191Z,315.00
2018-09-23T10:42:46.438Z,258.75
2018-09-23T10:43:49.236Z,230.63
2018-09-23T10:44:48.279Z,236.25
2018-09-23T10:45:46.392Z,275.63
2018-09-23T10:46:46.156Z,365.63
2018-09-23T10:47:46.848Z,427.50
2018-09-23T10:50:32.411Z,376.88
2018-09-23T10:51:31.518Z,331.88
2018-09-23T10:52:30.887Z,331.88
2018-09-23T10:53:30.652Z,326.25
2018-09-23T10:54:31.845Z,320.63
2018-09-23T10:55:28.960Z,331.88
2018-09-23T10:56:29.135Z,309.38
2018-09-23T10:57:29.166Z,281.25
2018-09-23T10:58:29.361Z,281.25
2018-09-23T10:59:29.666Z,292.50
2018-09-23T11:00:29.773Z,292.50
2018-09-23T11:03:23.689Z,230.63
2018-09-23T11:04:25.043Z,202.50
2018-09-23T11:08:45.654Z,180.00
2018-09-23T11:09:44.479Z,202.50
2018-09-23T11:10:40.441Z,236.25
2018-09-23T11:11:40.657Z,286.88
2018-09-23T11:12:41.054Z,303.75
2018-09-23T11:13:40.906Z,309.38
2018-09-23T11:14:40.966Z,320.63
2018-09-23T11:15:41.233Z,365.63
2018-09-23T11:16:41.368Z,399.38
2018-09-23T11:17:41.539Z,388.13
2018-09-23T11:18:41.874Z,371.25
2018-09-23T11:19:41.997Z,343.13
2018-09-23T11:20:42.124Z,320.63
2018-09-23T11:21:42.259Z,286.88
2018-09-23T11:22:42.397Z,247.50
2018-09-23T11:23:42.620Z,230.63
2018-09-23T11:24:42.889Z,236.25
2018-09-23T11:25:42.966Z,275.63
2018-09-23T11:26:43.088Z,258.75
2018-09-23T11:27:43.259Z,236.25
2018-09-23T11:28:43.384Z,219.38
2018-09-23T11:29:43.653Z,219.38
2018-09-23T11:30:43.801Z,208.13
2018-09-23T11:31:43.967Z,174.38
2018-09-23T11:32:44.144Z,140.63
2018-09-23T11:33:44.390Z,129.38
2018-09-23T11:34:44.617Z,123.75
2018-09-23T11:35:44.711Z,129.38
2018-09-23T11:36:44.921Z,118.13
2018-09-23T11:37:45.060Z,106.88
2018-09-23T11:38:45.254Z,112.50
2018-09-23T11:39:45.493Z,135.00
2018-09-23T11:40:45.450Z,174.38
2018-09-23T11:41:45.847Z,247.50
2018-09-23T11:42:45.905Z,303.75
2018-09-23T11:43:46.044Z,371.25
2018-09-23T11:44:46.163Z,348.75
2018-09-23T11:45:46.297Z,275.63
2018-09-23T11:46:46.543Z,247.50
2018-09-23T11:47:46.677Z,236.25
2018-09-23T11:48:46.897Z,196.88
2018-09-23T11:49:47.038Z,157.50
2018-09-23T11:50:47.244Z,135.00
2018-09-23T11:51:47.436Z,112.50
2018-09-23T11:52:47.574Z,101.25
2018-09-23T11:53:47.768Z,112.50
2018-09-23T11:54:47.886Z,123.75
2018-09-23T11:55:48.010Z,123.75
2018-09-23T11:56:48.192Z,123.75
2018-09-23T11:57:48.377Z,118.13
2018-09-23T11:58:48.653Z,118.13
2018-09-23T11:59:48.757Z,106.88
2018-09-23T12:00:49.029Z,84.38
2018-09-23T12:01:49.029Z,78.75
2018-09-23T12:02:49.259Z,90.00
2018-09-23T12:03:49.419Z,90.00
2018-09-23T12:04:49.570Z,101.25
2018-09-23T12:05:49.721Z,135.00
2018-09-23T12:06:50.002Z,163.13
2018-09-23T12:07:50.178Z,208.13
2018-09-23T12:08:50.241Z,258.75
2018-09-23T12:09:50.470Z,270.00
2018-09-23T12:10:50.596Z,258.75
2018-09-23T12:11:50.685Z,219.38
2018-09-23T12:12:50.876Z,168.75
2018-09-23T12:13:51.157Z,151.88
2018-09-23T12:14:51.380Z,146.25
2018-09-23T12:15:51.509Z,168.75
2018-09-23T12:16:51.631Z,202.50
2018-09-23T12:17:51.771Z,247.50
2018-09-23T12:18:51.931Z,281.25
2018-09-23T12:19:52.038Z,298.13
2018-09-23T12:20:52.260Z,298.13
2018-09-23T12:21:52.542Z,303.75
2018-09-23T12:22:52.699Z,270.00
2018-09-23T12:23:52.884Z,196.88
2018-09-23T12:24:53.146Z,146.25
2018-09-23T12:25:53.450Z,135.00
2018-09-23T12:26:53.484Z,129.38
2018-09-23T12:27:53.647Z,146.25
2018-09-23T12:28:53.920Z,191.25
2018-09-23T12:29:54.065Z,208.13
2018-09-23T12:30:54.298Z,225.00
2018-09-23T12:31:54.407Z,213.75
2018-09-23T12:32:54.550Z,180.00
2018-09-23T12:33:54.773Z,168.75
2018-09-23T12:34:55.031Z,157.50
2018-09-23T12:35:55.028Z,129.38
2018-09-23T12:36:55.244Z,95.63
2018-09-23T12:37:55.428Z,78.75
2018-09-23T12:38:55.730Z,78.75
2018-09-23T12:39:55.927Z,78.75
2018-09-23T12:40:56.005Z,73.13
2018-09-23T12:41:56.119Z,67.50
2018-09-23T12:42:56.415Z,67.50
2018-09-23T12:43:56.729Z,61.88
2018-09-23T12:44:57.590Z,50.63
2018-09-23T12:45:57.775Z,45.00
2018-09-23T14:21:08.023Z,28.13
2018-09-23T14:22:07.589Z,28.13
2018-09-23T14:29:09.531Z,16.88
2018-09-23T14:30:21.991Z,16.88
2018-09-23T14:39:35.276Z,22.50
2018-09-23T14:45:14.368Z,90.00
2018-09-23T14:51:14.805Z,95.63
2018-09-23T14:52:15.338Z,118.13
2018-09-23T14:53:15.568Z,123.75
2018-09-23T14:54:17.006Z,123.75
2018-09-23T14:55:14.538Z,106.88
2018-09-23T14:56:13.670Z,106.88
2018-09-23T14:57:14.099Z,101.25
2018-09-23T14:58:13.687Z,101.25
2018-09-23T14:59:14.074Z,112.50
2018-09-23T15:00:14.065Z,118.13
2018-09-23T15:03:02.978Z,106.88
2018-09-23T15:04:02.441Z,101.25
2018-09-23T15:05:02.629Z,95.63
2018-09-23T15:06:05.221Z,90.00
2018-09-23T15:11:36.095Z,73.13
2018-09-23T15:12:36.732Z,73.13
2018-09-23T15:13:40.020Z,73.13
2018-09-23T15:15:37.418Z,90.00
2018-09-23T15:16:38.175Z,101.25
2018-09-23T15:17:35.163Z,112.50
2018-09-23T15:18:34.845Z,112.50
2018-09-23T15:19:34.855Z,106.88
2018-09-23T15:20:35.119Z,106.88
2018-09-23T15:21:35.174Z,106.88
2018-09-23T15:22:35.282Z,118.13
2018-09-23T15:23:35.503Z,112.50
2018-09-23T15:24:35.788Z,101.25
2018-09-23T15:25:35.861Z,106.88
2018-09-23T15:26:36.282Z,123.75
2018-09-23T15:27:36.155Z,151.88
2018-09-23T15:28:36.388Z,180.00
2018-09-23T15:29:36.628Z,191.25
2018-09-23T15:30:36.776Z,174.38
2018-09-23T15:31:36.884Z,168.75
2018-09-23T15:32:37.419Z,146.25
2018-09-23T15:33:37.269Z,129.38
2018-09-23T15:34:37.364Z,112.50
2018-09-23T15:35:37.767Z,101.25
2018-09-23T15:36:37.922Z,78.75
2018-09-23T15:37:38.306Z,61.88
2018-09-23T15:38:38.596Z,56.25
2018-09-23T15:39:38.855Z,50.63
2018-09-23T15:40:39.310Z,45.00
2018-09-23T15:41:38.859Z,39.38
2018-09-23T15:42:39.026Z,39.38
2018-09-23T15:43:39.088Z,50.63
2018-09-23T15:44:39.241Z,56.25
2018-09-23T15:45:39.346Z,50.63
2018-09-23T15:46:39.611Z,39.38
2018-09-23T15:47:39.909Z,33.75
2018-09-23T15:48:39.938Z,33.75
2018-09-23T15:49:40.135Z,33.75
2018-09-23T15:50:40.247Z,33.75
2018-09-23T15:51:40.464Z,39.38
2018-09-23T15:52:40.789Z,39.38
2018-09-23T15:53:40.640Z,39.38
2018-09-23T15:54:40.979Z,33.75
2018-09-23T15:55:41.032Z,28.13
2018-09-23T15:56:41.266Z,16.88
2018-09-23T15:57:41.583Z,11.25
2018-09-23T15:58:41.793Z,11.25
2018-09-23T15:59:41.746Z,11.25
2018-09-23T16:00:42.115Z,11.25
2018-09-23T16:01:42.135Z,16.88
2018-09-23T16:02:42.362Z,16.88
2018-09-23T16:03:42.729Z,11.25
2018-09-23T16:04:42.702Z,16.88
2018-09-23T16:05:42.961Z,11.25
2018-09-23T16:06:42.996Z,16.88
2018-09-23T16:07:43.258Z,16.88
2018-09-23T16:08:43.481Z,16.88
2018-09-23T16:09:43.744Z,22.50
2018-09-23T16:10:43.747Z,22.50
2018-09-23T16:11:43.875Z,16.88
2018-09-23T16:12:44.170Z,16.88
2018-09-23T16:13:44.801Z,16.88
2018-09-23T16:14:44.639Z,22.50
2018-09-23T16:15:46.654Z,22.50
2018-09-23T16:16:44.941Z,22.50
2018-09-23T16:17:49.127Z,22.50
2018-09-23T16:18:45.392Z,22.50
2018-09-23T16:19:45.560Z,16.88
2018-09-23T16:20:45.965Z,16.88
2018-09-23T16:21:45.756Z,11.25
2018-09-23T16:22:45.825Z,11.25
2018-09-23T16:23:45.963Z,11.25
2018-09-23T16:24:46.438Z,11.25
2018-09-23T16:25:46.474Z,11.25
2018-09-23T16:26:46.824Z,11.25
2018-09-23T16:27:47.380Z,11.25
2018-09-23T16:28:58.460Z,11.25
2018-09-23T16:29:47.589Z,16.88
2018-09-23T16:30:47.461Z,16.88
2018-09-23T16:31:48.515Z,22.50
2018-09-23T16:32:49.319Z,22.50
2018-09-23T16:33:47.901Z,16.88
2018-09-23T16:34:49.200Z,11.25
2018-09-23T16:35:50.172Z,5.63
2018-09-23T16:39:33.914Z,5.63
2018-09-23T16:40:35.321Z,5.63
2018-09-23T16:43:13.421Z,5.63
2018-09-23T16:46:34.617Z,5.63
2018-09-23T16:48:55.808Z,5.63
2018-09-23T16:49:58.994Z,5.63
2018-09-23T16:50:58.967Z,11.25
2018-09-23T16:51:56.656Z,16.88
2018-09-23T16:52:56.439Z,16.88
2018-09-23T16:54:56.814Z,11.25
2018-09-23T16:55:57.009Z,5.63
2018-09-23T16:59:57.563Z,5.63
2018-09-23T17:01:58.939Z,5.63
2018-09-23T17:02:58.526Z,5.63
2018-09-23T17:03:58.319Z,5.63
2018-09-23T17:04:58.430Z,11.25
2018-09-23T17:06:11.641Z,11.25
2018-09-23T17:07:59.089Z,16.88
2018-09-23T17:08:59.318Z,16.88
2018-09-23T17:09:59.387Z,11.25
2018-09-23T17:15:01.459Z,0.00
2018-09-23T17:16:00.433Z,0.00
2018-09-23T17:17:01.994Z,0.00
2018-09-23T17:18:00.743Z,0.00
2018-09-23T17:19:00.874Z,0.00
2018-09-23T17:20:01.100Z,0.00
2018-09-23T17:21:01.142Z,0.00
2018-09-23T17:22:01.253Z,0.00
2018-09-23T17:23:01.441Z,0.00
2018-09-23T17:24:11.291Z,0.00
2018-09-23T17:29:51.173Z,0.00
2018-09-23T17:30:50.861Z,0.00
2018-09-23T17:32:05.297Z,0.00
2018-09-23T17:32:47.827Z,0.00
2018-09-23T17:33:48.203Z,0.00
2018-09-23T17:34:48.225Z,0.00
2018-09-23T17:35:48.762Z,0.00
2018-09-23T17:36:48.445Z,0.00
2018-09-23T17:37:48.553Z,0.00
2018-09-23T17:38:48.627Z,0.00
2018-09-23T17:39:48.870Z,0.00
2018-09-23T17:40:49.221Z,0.00
2018-09-23T17:41:49.290Z,0.00
2018-09-23T17:42:49.453Z,0.00
2018-09-23T17:43:49.545Z,0.00
2018-09-23T17:44:49.950Z,0.00
2018-09-23T17:45:49.919Z,0.00
2018-09-23T17:46:50.155Z,0.00
2018-09-23T17:47:50.235Z,0.00
2018-09-23T17:48:50.610Z,0.00
2018-09-23T17:49:50.715Z,0.00
2018-09-23T17:50:50.989Z,0.00
2018-09-23T17:51:51.167Z,0.00
2018-09-23T17:52:51.325Z,0.00
2018-09-23T17:53:51.347Z,0.00
2018-09-23T17:54:51.786Z,0.00
2018-09-23T17:55:51.679Z,0.00
2018-09-23T17:57:52.159Z,0.00
2018-09-23T17:58:52.388Z,0.00
2018-09-23T17:59:52.413Z,0.00
2018-09-23T18:00:52.674Z,0.00
2018-09-23T18:01:52.873Z,0.00
2018-09-23T18:02:53.212Z,0.00
2018-09-23T18:03:53.218Z,0.00
2018-09-23T18:04:53.239Z,0.00
2018-09-23T18:05:53.460Z,0.00
2018-09-23T18:06:53.570Z,0.00
2018-09-23T18:07:53.898Z,0.00
2018-09-23T18:08:53.980Z,0.00
2018-09-23T18:09:54.319Z,0.00
2018-09-23T18:10:54.372Z,0.00
2018-09-23T18:11:54.554Z,0.00
2018-09-23T18:12:54.935Z,0.00
2018-09-23T18:13:54.911Z,0.00
2018-09-23T18:14:55.020Z,0.00
2018-09-23T18:15:55.275Z,0.00
2018-09-23T18:16:55.533Z,0.00
2018-09-23T18:17:55.504Z,0.00
2018-09-23T18:18:56.535Z,0.00
2018-09-23T18:19:55.965Z,0.00
2018-09-23T18:20:56.213Z,0.00
2018-09-23T18:21:56.287Z,0.00
2018-09-23T18:22:56.561Z,0.00
2018-09-23T18:23:56.563Z,0.00
2018-09-23T18:24:56.755Z,0.00
2018-09-23T18:25:56.910Z,0.00
2018-09-23T18:26:57.063Z,0.00
2018-09-23T18:27:57.315Z,0.00
2018-09-23T18:28:57.496Z,0.00
2018-09-23T18:29:57.856Z,0.00
2018-09-23T18:30:57.825Z,0.00
2018-09-23T18:31:58.163Z,0.00
2018-09-23T18:32:58.278Z,0.00
2018-09-23T18:33:58.457Z,0.00
2018-09-23T18:34:58.515Z,0.00
2018-09-23T18:35:58.689Z,0.00
2018-09-23T18:36:58.864Z,0.00
2018-09-23T18:37:59.310Z,0.00
2018-09-23T18:38:59.169Z,0.00
2018-09-23T18:39:59.640Z,0.00
2018-09-23T18:40:59.748Z,0.00
2018-09-23T18:41:59.889Z,0.00
2018-09-23T18:43:00.149Z,0.00
2018-09-23T18:44:00.106Z,0.00
2018-09-23T18:45:00.653Z,0.00
2018-09-23T18:46:00.706Z,0.00
2018-09-23T18:47:00.710Z,0.00
2018-09-23T18:48:00.780Z,0.00
2018-09-23T18:49:01.083Z,0.00
2018-09-23T18:50:01.200Z,0.00
2018-09-23T18:51:01.253Z,0.00
2018-09-23T18:52:01.463Z,0.00
2018-09-23T18:53:01.625Z,0.00
2018-09-23T18:54:01.893Z,0.00
2018-09-23T18:55:01.999Z,0.00
2018-09-23T18:56:02.167Z,0.00
2018-09-23T18:57:02.386Z,0.00
2018-09-23T18:58:02.440Z,0.00
2018-09-23T18:59:02.673Z,0.00
2018-09-23T19:00:02.855Z,0.00
2018-09-23T19:01:02.933Z,0.00
2018-09-23T19:03:03.478Z,0.00
2018-09-23T19:04:03.887Z,0.00
2018-09-23T19:05:03.757Z,0.00
2018-09-23T19:06:03.891Z,0.00
2018-09-23T19:07:04.630Z,0.00
2018-09-23T19:08:04.274Z,0.00
2018-09-23T19:09:04.689Z,0.00
2018-09-23T19:10:04.596Z,0.00
2018-09-23T19:11:04.861Z,0.00
2018-09-23T19:12:06.295Z,0.00
2018-09-23T19:13:05.257Z,0.00
2018-09-23T19:14:05.444Z,0.00
2018-09-23T19:16:07.462Z,0.00
2018-09-23T19:17:05.938Z,0.00
2018-09-23T19:18:06.215Z,0.00
2018-09-23T19:19:06.242Z,0.00
2018-09-23T19:20:06.478Z,0.00
2018-09-23T19:21:06.592Z,0.00
2018-09-23T19:22:06.725Z,0.00
2018-09-23T19:23:06.888Z,0.00
2018-09-23T19:24:07.078Z,0.00
2018-09-23T19:25:07.228Z,0.00
2018-09-23T19:26:07.370Z,0.00
2018-09-23T19:27:07.620Z,0.00
2018-09-23T19:28:07.749Z,0.00
2018-09-23T19:29:08.577Z,0.00
2018-09-23T19:30:08.131Z,0.00
2018-09-23T19:31:08.372Z,0.00
2018-09-23T19:32:08.399Z,0.00
2018-09-23T19:33:08.756Z,0.00
2018-09-23T19:34:08.693Z,0.00
2018-09-23T19:35:08.902Z,0.00
2018-09-23T19:36:09.031Z,0.00
2018-09-23T19:37:09.304Z,0.00
2018-09-23T19:38:09.351Z,0.00
2018-09-23T19:39:09.723Z,0.00
2018-09-23T19:40:09.904Z,0.00
2018-09-23T19:41:10.143Z,0.00
2018-09-23T19:42:10.131Z,0.00
2018-09-23T19:43:10.218Z,0.00
2018-09-23T19:44:10.582Z,0.00
2018-09-23T19:45:10.631Z,0.00
2018-09-23T19:46:10.765Z,0.00
2018-09-23T19:47:10.948Z,0.00
2018-09-23T19:48:11.184Z,0.00
2018-09-23T19:49:11.316Z,0.00
2018-09-23T19:50:11.487Z,0.00
2018-09-23T19:51:11.651Z,0.00
2018-09-23T19:52:11.906Z,0.00
2018-09-23T19:53:12.023Z,0.00
2018-09-23T19:54:12.322Z,0.00
2018-09-23T19:55:12.794Z,0.00
2018-09-23T19:56:12.404Z,0.00
2018-09-23T19:57:12.661Z,0.00
2018-09-23T19:58:12.963Z,0.00
2018-09-23T19:59:12.950Z,0.00
2018-09-23T20:00:13.084Z,0.00
2018-09-23T20:01:13.435Z,0.00
2018-09-23T20:02:13.381Z,0.00
2018-09-23T20:03:13.733Z,0.00
2018-09-23T20:04:13.940Z,0.00
2018-09-23T20:05:13.921Z,0.00
2018-09-23T20:06:14.153Z,0.00
2018-09-23T20:07:14.390Z,0.00
2018-09-23T20:08:14.557Z,0.00
2018-09-23T20:09:14.714Z,0.00
2018-09-23T20:10:14.849Z,0.00
2018-09-23T20:11:15.051Z,0.00
2018-09-23T20:13:19.483Z,0.00
2018-09-23T20:14:15.787Z,0.00
2018-09-23T20:15:17.623Z,0.00
2018-09-23T20:16:16.103Z,0.00
2018-09-23T20:18:16.299Z,0.00
2018-09-23T20:19:16.782Z,0.00
2018-09-23T20:21:50.025Z,0.00
2018-09-23T20:22:17.225Z,0.00
2018-09-23T20:24:18.063Z,0.00
2018-09-23T20:26:44.296Z,0.00
2018-09-23T20:27:44.551Z,0.00
2018-09-23T20:28:44.712Z,0.00
2018-09-23T20:29:44.823Z,0.00
2018-09-23T20:30:45.019Z,0.00
2018-09-23T20:31:45.131Z,0.00
2018-09-23T20:32:45.335Z,0.00
2018-09-23T20:33:45.529Z,0.00
2018-09-23T20:34:45.577Z,0.00
2018-09-23T20:35:45.826Z,0.00
2018-09-23T20:36:46.210Z,0.00
2018-09-23T20:37:46.305Z,0.00
2018-09-23T20:38:46.459Z,0.00
2018-09-23T20:39:46.601Z,0.00
2018-09-23T20:40:46.730Z,0.00
2018-09-23T20:41:47.027Z,0.00
2018-09-23T20:42:47.129Z,0.00
2018-09-23T20:43:47.335Z,0.00
2018-09-23T20:44:47.541Z,0.00
2018-09-23T20:45:47.574Z,0.00
2018-09-23T20:46:47.810Z,0.00
2018-09-23T20:47:47.922Z,0.00
2018-09-23T20:48:48.231Z,0.00
2018-09-23T20:49:48.332Z,0.00
2018-09-23T20:50:48.638Z,0.00
2018-09-23T20:51:48.751Z,0.00
2018-09-23T20:52:48.842Z,0.00
2018-09-23T20:53:49.126Z,0.00
2018-09-23T20:54:49.189Z,0.00
2018-09-23T20:55:49.372Z,0.00
2018-09-23T20:56:49.580Z,0.00
2018-09-23T20:57:49.794Z,0.00
2018-09-23T20:58:49.917Z,0.00
2018-09-23T20:59:50.218Z,0.00
2018-09-23T21:00:50.275Z,0.00
2018-09-23T21:01:50.408Z,0.00
2018-09-23T21:02:50.556Z,0.00
2018-09-23T21:03:50.749Z,0.00
2018-09-23T21:04:50.973Z,0.00
2018-09-23T21:05:51.090Z,0.00
2018-09-23T21:06:51.295Z,0.00
2018-09-23T21:07:51.438Z,0.00
2018-09-23T21:08:51.686Z,0.00
2018-09-23T21:09:51.750Z,0.00
2018-09-23T21:10:51.943Z,0.00
2018-09-23T21:11:52.276Z,0.00
2018-09-23T21:12:52.317Z,0.00
2018-09-23T21:13:52.592Z,0.00
2018-09-23T21:14:52.765Z,0.00
2018-09-23T21:15:52.856Z,0.00
2018-09-23T21:16:53.408Z,0.00
2018-09-23T21:17:53.706Z,0.00
2018-09-23T21:18:53.534Z,0.00
2018-09-23T21:19:53.639Z,0.00
2018-09-23T21:20:53.760Z,0.00
2018-09-23T21:21:53.973Z,0.00
2018-09-23T21:22:54.137Z,0.00
2018-09-23T21:23:54.291Z,0.00
2018-09-23T21:24:54.354Z,0.00
2018-09-23T21:25:54.571Z,0.00
2018-09-23T21:26:54.699Z,0.00
2018-09-23T21:27:55.166Z,0.00
2018-09-23T21:28:55.114Z,0.00
2018-09-23T21:29:55.242Z,0.00
2018-09-23T21:30:55.479Z,0.00
2018-09-23T21:31:55.682Z,0.00
2018-09-23T21:32:55.745Z,0.00
2018-09-23T21:33:55.945Z,0.00
2018-09-23T21:34:56.144Z,0.00
2018-09-23T21:35:56.236Z,0.00
2018-09-23T21:36:56.410Z,0.00
2018-09-23T21:37:56.639Z,0.00
2018-09-23T21:38:56.823Z,0.00
2018-09-23T21:39:56.904Z,0.00
2018-09-23T21:40:57.173Z,0.00
2018-09-23T21:41:57.421Z,0.00
2018-09-23T21:42:57.460Z,0.00
2018-09-23T21:43:57.756Z,0.00
2018-09-23T21:44:57.796Z,0.00
2018-09-23T21:45:58.001Z,0.00
2018-09-23T21:46:58.325Z,0.00
2018-09-23T21:47:58.383Z,0.00
2018-09-23T21:48:58.673Z,0.00
2018-09-23T21:49:58.762Z,0.00
